createdAt,value
2019-05-09T00:01:03.882Z,6.77
2019-05-09T00:03:35.620Z,6.17
2019-05-09T00:06:06.865Z,6.40
2019-05-09T00:08:38.857Z,10.27
2019-05-09T00:11:10.149Z,6.97
2019-05-09T00:13:43.437Z,9.00
2019-05-09T00:16:14.906Z,10.33
2019-05-09T00:18:46.144Z,11.37
2019-05-09T00:21:23.923Z,12.10
2019-05-09T00:23:55.698Z,8.00
2019-05-09T00:26:26.966Z,7.93
2019-05-09T00:29:03.783Z,7.13
2019-05-09T00:31:45.495Z,7.63
2019-05-09T00:34:24.968Z,13.60
2019-05-09T00:36:56.619Z,15.87
2019-05-09T00:39:29.468Z,14.40
2019-05-09T00:42:01.241Z,14.20
2019-05-09T00:44:34.502Z,15.47
2019-05-09T00:47:24.661Z,9.33
2019-05-09T00:49:55.903Z,8.50
2019-05-09T00:52:27.147Z,10.43
2019-05-09T00:54:58.396Z,10.00
2019-05-09T00:57:36.189Z,9.13
2019-05-09T01:00:14.551Z,9.47
2019-05-09T01:02:46.097Z,9.10
2019-05-09T01:05:17.628Z,10.33
2019-05-09T01:07:49.674Z,15.67
2019-05-09T01:10:23.514Z,12.80
2019-05-09T01:12:54.599Z,8.87
2019-05-09T01:15:26.013Z,8.10
2019-05-09T01:17:57.224Z,7.10
2019-05-09T01:20:28.436Z,5.70
2019-05-09T01:23:00.288Z,8.83
2019-05-09T01:25:33.515Z,6.77
2019-05-09T01:28:04.939Z,6.47
2019-05-09T01:30:36.274Z,8.50
2019-05-09T01:33:27.927Z,7.27
2019-05-09T01:36:00.996Z,7.30
2019-05-09T01:38:33.893Z,5.43
2019-05-09T01:41:05.164Z,13.00
2019-05-09T01:43:36.441Z,8.23
2019-05-09T01:46:08.017Z,6.90
2019-05-09T01:48:39.447Z,8.43
2019-05-09T01:51:10.992Z,6.90
2019-05-09T01:53:48.488Z,10.63
2019-05-09T01:56:19.961Z,9.57
2019-05-09T01:58:53.596Z,14.33
2019-05-09T02:01:25.032Z,11.50
2019-05-09T02:03:56.634Z,10.80
2019-05-09T02:06:29.524Z,8.23
2019-05-09T02:09:00.740Z,8.30
2019-05-09T02:11:41.686Z,7.73
2019-05-09T02:14:05.077Z,6.53
2019-05-09T02:16:47.209Z,7.27
2019-05-09T02:19:33.212Z,7.40
2019-05-09T02:22:23.813Z,6.60
2019-05-09T02:24:55.570Z,6.03
2019-05-09T02:27:26.813Z,6.60
2019-05-09T02:29:58.235Z,8.10
2019-05-09T02:32:29.456Z,7.37
2019-05-09T02:35:04.617Z,12.10
2019-05-09T02:37:33.820Z,14.20
2019-05-09T02:40:09.228Z,14.00
2019-05-09T02:42:39.828Z,12.27
2019-05-09T02:45:11.842Z,14.70
2019-05-09T02:47:44.074Z,15.50
2019-05-09T02:50:15.531Z,15.70
2019-05-09T02:52:48.663Z,16.80
2019-05-09T02:55:20.353Z,15.27
2019-05-09T02:57:53.206Z,15.97
2019-05-09T03:00:41.868Z,15.63
2019-05-09T03:03:29.022Z,16.20
2019-05-09T03:05:59.981Z,15.13
2019-05-09T03:08:33.846Z,22.83
2019-05-09T03:11:05.116Z,15.33
2019-05-09T03:13:39.411Z,11.63
2019-05-09T03:16:13.767Z,14.23
2019-05-09T03:18:45.239Z,13.70
2019-05-09T03:21:44.754Z,14.00
2019-05-09T03:24:18.475Z,13.83
2019-05-09T03:26:55.201Z,19.77
2019-05-09T03:29:34.246Z,15.70
2019-05-09T03:32:08.834Z,15.70
2019-05-09T03:34:38.741Z,15.57
2019-05-09T03:37:10.081Z,16.83
2019-05-09T03:39:41.658Z,15.93
2019-05-09T03:42:13.150Z,12.90
2019-05-09T03:44:44.824Z,13.60
2019-05-09T03:47:50.545Z,9.23
2019-05-09T03:50:21.755Z,8.10
2019-05-09T03:52:52.947Z,5.93
2019-05-09T03:55:29.147Z,5.73
2019-05-09T03:58:20.087Z,6.90
2019-05-09T04:00:51.372Z,9.83
2019-05-09T04:03:23.217Z,7.00
2019-05-09T04:06:02.706Z,5.03
2019-05-09T04:08:29.862Z,5.77
2019-05-09T04:11:01.428Z,13.60
2019-05-09T04:13:38.519Z,3.07
2019-05-09T04:16:10.336Z,4.80
2019-05-09T04:18:41.737Z,4.27
2019-05-09T04:21:13.076Z,3.10
2019-05-09T04:23:44.440Z,5.03
2019-05-09T04:26:33.562Z,7.37
2019-05-09T04:29:04.792Z,16.63
2019-05-09T04:31:38.396Z,4.33
2019-05-09T04:34:10.016Z,3.20
2019-05-09T04:36:42.328Z,7.27
2019-05-09T04:39:21.856Z,3.43
2019-05-09T04:41:49.013Z,9.40
2019-05-09T04:44:28.717Z,3.10
2019-05-09T04:47:03.501Z,4.73
2019-05-09T04:49:39.313Z,6.17
2019-05-09T04:52:07.664Z,4.00
2019-05-09T04:54:39.201Z,9.73
2019-05-09T04:57:12.137Z,20.60
2019-05-09T04:59:43.394Z,15.33
2019-05-09T05:02:31.244Z,4.63
2019-05-09T05:05:02.880Z,5.40
2019-05-09T05:07:34.195Z,2.50
2019-05-09T05:10:08.799Z,3.23
2019-05-09T05:12:39.362Z,5.10
2019-05-09T05:15:11.879Z,3.87
2019-05-09T05:17:44.682Z,2.13
2019-05-09T05:20:19.900Z,2.37
2019-05-09T05:22:58.124Z,1.50
2019-05-09T05:25:29.559Z,2.27
2019-05-09T05:28:02.369Z,1.60
2019-05-09T05:30:33.813Z,2.13
2019-05-09T05:33:09.446Z,2.67
2019-05-09T05:35:48.000Z,1.83
2019-05-09T05:38:21.247Z,2.90
2019-05-09T05:40:52.471Z,2.43
2019-05-09T05:43:37.108Z,1.07
2019-05-09T05:46:07.556Z,1.03
2019-05-09T05:48:39.442Z,1.10
2019-05-09T05:51:10.822Z,1.60
2019-05-09T05:53:42.028Z,3.10
2019-05-09T05:56:13.224Z,1.27
2019-05-09T05:58:44.785Z,2.83
2019-05-09T06:01:18.519Z,1.53
2019-05-09T06:03:49.420Z,2.67
2019-05-09T06:06:20.611Z,2.97
2019-05-09T06:08:52.500Z,4.77
2019-05-09T06:11:23.730Z,5.23
2019-05-09T06:14:03.906Z,2.73
2019-05-09T06:16:28.288Z,1.40
2019-05-09T06:19:01.131Z,1.60
2019-05-09T06:21:32.685Z,1.40
2019-05-09T06:24:03.952Z,1.00
2019-05-09T06:26:37.241Z,2.17
2019-05-09T06:29:08.250Z,1.37
2019-05-09T06:31:39.492Z,1.87
2019-05-09T06:34:10.839Z,1.77
2019-05-09T06:36:43.652Z,1.57
2019-05-09T06:39:14.857Z,1.90
2019-05-09T06:41:48.413Z,4.50
2019-05-09T06:44:40.174Z,6.60
2019-05-09T06:47:20.648Z,21.40
2019-05-09T06:49:53.945Z,4.17
2019-05-09T06:52:25.430Z,2.77
2019-05-09T06:54:58.268Z,2.80
2019-05-09T06:57:29.821Z,1.63
2019-05-09T07:00:01.061Z,7.77
2019-05-09T07:02:38.914Z,6.30
2019-05-09T07:05:18.995Z,4.50
2019-05-09T07:08:02.373Z,1.60
2019-05-09T07:10:33.614Z,2.90
2019-05-09T07:13:05.168Z,1.40
2019-05-09T07:15:37.627Z,1.17
2019-05-09T07:18:09.252Z,1.07
2019-05-09T07:20:40.560Z,1.80
2019-05-09T07:23:11.773Z,1.03
2019-05-09T07:26:17.849Z,0.80
2019-05-09T07:28:51.326Z,1.10
2019-05-09T07:31:41.488Z,1.53
2019-05-09T07:34:18.430Z,1.00
2019-05-09T07:36:50.087Z,2.40
2019-05-09T07:39:21.286Z,2.60
2019-05-09T07:41:52.674Z,2.30
2019-05-09T07:44:23.887Z,2.30
2019-05-09T07:47:00.069Z,3.30
2019-05-09T07:49:32.109Z,1.80
2019-05-09T07:52:06.711Z,2.60
2019-05-09T07:54:37.697Z,1.33
2019-05-09T07:57:09.200Z,2.70
2019-05-09T07:59:40.539Z,10.00
2019-05-09T08:02:13.122Z,14.20
2019-05-09T08:04:45.942Z,4.33
2019-05-09T08:07:17.623Z,4.90
2019-05-09T08:09:48.899Z,2.83
2019-05-09T08:12:20.217Z,2.10
2019-05-09T08:15:07.476Z,60.77
2019-05-09T08:17:24.800Z,12.83
2019-05-09T08:19:58.321Z,8.80
2019-05-09T08:22:32.200Z,3.37
2019-05-09T08:25:02.273Z,5.77
2019-05-09T08:27:33.921Z,1.87
2019-05-09T08:30:07.878Z,1.00
2019-05-09T08:32:38.944Z,2.10
2019-05-09T08:35:10.402Z,1.80
2019-05-09T08:37:42.927Z,1.20
2019-05-09T08:40:14.198Z,2.40
2019-05-09T08:42:47.907Z,15.93
2019-05-09T08:45:27.673Z,12.33
2019-05-09T08:47:52.073Z,13.13
2019-05-09T08:50:29.213Z,5.20
2019-05-09T08:53:00.955Z,7.37
2019-05-09T08:55:32.158Z,6.13
2019-05-09T08:58:03.541Z,3.93
2019-05-09T09:00:34.727Z,3.93
2019-05-09T09:03:08.014Z,4.57
2019-05-09T09:05:38.891Z,4.37
2019-05-09T09:08:12.098Z,2.40
2019-05-09T09:10:43.312Z,6.60
2019-05-09T09:13:14.508Z,3.57
2019-05-09T09:16:04.554Z,1.30
2019-05-09T09:18:18.678Z,1.63
2019-05-09T09:20:50.138Z,3.50
2019-05-09T09:23:21.942Z,2.60
2019-05-09T09:25:53.452Z,2.50
2019-05-09T09:28:24.688Z,1.83
2019-05-09T09:30:58.959Z,2.50
2019-05-09T09:33:29.521Z,2.10
2019-05-09T09:36:00.979Z,2.10
2019-05-09T09:38:32.259Z,1.33
2019-05-09T09:41:07.599Z,3.07
2019-05-09T09:43:38.528Z,1.60
2019-05-09T09:46:14.459Z,1.60
2019-05-09T09:48:43.494Z,3.73
2019-05-09T09:51:14.763Z,1.30
2019-05-09T09:53:48.664Z,3.80
2019-05-09T09:56:22.371Z,5.23
2019-05-09T09:59:02.710Z,3.10
2019-05-09T10:01:38.491Z,1.73
2019-05-09T10:04:23.699Z,1.30
2019-05-09T10:06:53.123Z,3.10
2019-05-09T10:09:24.734Z,1.60
2019-05-09T10:11:58.123Z,1.20
2019-05-09T10:14:32.015Z,1.10
2019-05-09T10:17:22.589Z,2.20
2019-05-09T10:20:09.083Z,0.80
2019-05-09T10:22:46.584Z,7.07
2019-05-09T10:25:14.052Z,2.73
2019-05-09T10:27:47.962Z,4.37
2019-05-09T10:30:24.519Z,3.23
2019-05-09T10:32:58.353Z,2.90
2019-05-09T10:35:29.231Z,1.00
2019-05-09T10:38:00.749Z,3.13
2019-05-09T10:40:32.053Z,1.90
2019-05-09T10:43:35.602Z,2.27
2019-05-09T10:46:08.435Z,1.50
2019-05-09T10:48:41.747Z,2.20
2019-05-09T10:51:13.230Z,1.63
2019-05-09T10:53:44.592Z,2.90
2019-05-09T10:56:18.808Z,4.50
2019-05-09T10:58:50.860Z,6.13
2019-05-09T11:01:22.074Z,6.27
2019-05-09T11:03:54.058Z,7.07
2019-05-09T11:06:25.341Z,3.87
2019-05-09T11:08:58.366Z,5.43
2019-05-09T11:11:29.575Z,4.13
2019-05-09T11:14:01.597Z,4.70
2019-05-09T11:16:45.472Z,2.50
2019-05-09T11:19:08.020Z,1.90
2019-05-09T11:21:39.492Z,1.70
2019-05-09T11:24:10.898Z,3.37
2019-05-09T11:26:43.755Z,4.17
2019-05-09T11:29:15.176Z,2.97
2019-05-09T11:31:47.751Z,3.43
2019-05-09T11:34:19.237Z,3.30
2019-05-09T11:36:50.478Z,4.07
2019-05-09T11:39:35.550Z,2.30
2019-05-09T11:41:55.147Z,1.93
2019-05-09T11:44:27.238Z,3.17
2019-05-09T11:46:58.717Z,1.40
2019-05-09T11:49:29.962Z,2.50
2019-05-09T11:52:01.769Z,1.43
2019-05-09T11:54:35.226Z,2.27
2019-05-09T11:57:07.719Z,2.73
2019-05-09T11:59:38.868Z,1.60
2019-05-09T12:02:15.077Z,2.90
2019-05-09T12:04:48.683Z,1.50
2019-05-09T12:07:20.205Z,2.50
2019-05-09T12:09:51.606Z,2.40
2019-05-09T12:12:22.816Z,2.13
2019-05-09T12:14:54.975Z,1.67
2019-05-09T12:17:26.228Z,3.50
2019-05-09T12:20:09.833Z,10.87
2019-05-09T12:22:30.597Z,2.90
2019-05-09T12:25:01.995Z,1.33
2019-05-09T12:27:33.388Z,1.40
2019-05-09T12:30:05.064Z,2.53
2019-05-09T12:32:38.527Z,3.00
2019-05-09T12:35:09.524Z,3.93
2019-05-09T12:37:42.036Z,1.37
2019-05-09T12:40:13.738Z,1.70
2019-05-09T12:42:49.653Z,1.43
2019-05-09T12:45:19.908Z,1.40
2019-05-09T12:48:06.277Z,2.30
2019-05-09T12:50:24.555Z,1.87
2019-05-09T12:52:58.012Z,5.73
2019-05-09T12:55:28.832Z,2.33
2019-05-09T12:58:00.270Z,2.20
2019-05-09T13:00:31.487Z,3.07
2019-05-09T13:03:03.048Z,2.87
2019-05-09T13:05:34.251Z,2.63
2019-05-09T13:08:05.494Z,5.27
2019-05-09T13:10:37.873Z,2.27
2019-05-09T13:13:09.785Z,1.70
2019-05-09T13:15:48.971Z,3.63
2019-05-09T13:18:24.565Z,1.97
2019-05-09T13:20:53.442Z,1.90
2019-05-09T13:23:24.921Z,2.77
2019-05-09T13:25:58.604Z,2.67
2019-05-09T13:28:31.809Z,2.40
2019-05-09T13:31:03.065Z,2.60
2019-05-09T13:33:34.450Z,5.20
2019-05-09T13:36:05.648Z,4.70
2019-05-09T13:38:37.850Z,15.20
2019-05-09T13:41:10.092Z,14.10
2019-05-09T13:43:47.441Z,5.20
2019-05-09T13:46:17.896Z,7.97
2019-05-09T13:49:06.006Z,3.40
2019-05-09T13:51:22.501Z,3.03
2019-05-09T13:53:54.392Z,7.60
2019-05-09T13:56:27.810Z,7.60
2019-05-09T13:58:58.559Z,3.73
2019-05-09T14:01:31.123Z,8.70
2019-05-09T14:04:07.975Z,1.77
2019-05-09T14:06:39.118Z,4.87
2019-05-09T14:09:13.128Z,4.97
2019-05-09T14:11:47.987Z,6.70
2019-05-09T14:14:20.596Z,12.73
2019-05-09T14:16:52.132Z,7.00
2019-05-09T14:19:34.311Z,4.23
2019-05-09T14:21:58.582Z,3.37
2019-05-09T14:24:29.271Z,2.50
2019-05-09T14:27:00.498Z,4.00
2019-05-09T14:29:32.159Z,10.23
2019-05-09T14:32:05.459Z,6.50
2019-05-09T14:34:38.187Z,9.90
2019-05-09T14:37:10.304Z,4.60
2019-05-09T14:39:54.738Z,2.80
2019-05-09T14:42:15.166Z,3.03
2019-05-09T14:44:47.390Z,2.03
2019-05-09T14:47:18.805Z,3.07
2019-05-09T14:49:50.845Z,3.67
2019-05-09T14:52:24.210Z,2.93
2019-05-09T14:54:57.966Z,4.03
2019-05-09T14:57:28.701Z,2.60
2019-05-09T15:00:00.044Z,3.93
2019-05-09T15:02:31.572Z,6.77
2019-05-09T15:05:03.731Z,3.77
2019-05-09T15:07:35.562Z,2.70
2019-05-09T15:10:08.599Z,3.87
2019-05-09T15:12:40.340Z,3.37
2019-05-09T15:15:12.247Z,2.73
2019-05-09T15:17:43.595Z,10.57
2019-05-09T15:20:15.066Z,3.80
2019-05-09T15:22:48.008Z,2.40
2019-05-09T15:25:20.892Z,1.60
2019-05-09T15:27:52.440Z,2.40
2019-05-09T15:30:24.141Z,3.30
2019-05-09T15:32:55.500Z,1.63
2019-05-09T15:35:28.123Z,1.40
2019-05-09T15:37:59.656Z,2.70
2019-05-09T15:40:30.862Z,1.47
2019-05-09T15:43:02.106Z,3.37
2019-05-09T15:45:41.027Z,2.70
2019-05-09T15:48:12.474Z,6.00
2019-05-09T15:50:43.784Z,4.63
2019-05-09T15:53:15.182Z,7.57
2019-05-09T15:55:48.047Z,3.40
2019-05-09T15:58:19.578Z,3.00
2019-05-09T16:00:51.316Z,3.77
2019-05-09T16:03:23.281Z,1.60
2019-05-09T16:05:58.577Z,2.87
2019-05-09T16:08:31.015Z,3.27
2019-05-09T16:11:02.496Z,1.93
2019-05-09T16:13:33.875Z,3.50
2019-05-09T16:16:05.123Z,1.63
2019-05-09T16:18:36.398Z,2.90
2019-05-09T16:21:11.067Z,2.73
2019-05-09T16:23:48.699Z,5.60
2019-05-09T16:26:31.130Z,4.43
2019-05-09T16:29:12.567Z,1.93
2019-05-09T16:31:51.146Z,5.90
2019-05-09T16:34:35.706Z,4.90
2019-05-09T16:37:10.746Z,2.03
2019-05-09T16:39:49.943Z,2.00
2019-05-09T16:42:28.151Z,1.57
2019-05-09T16:44:59.592Z,1.77
2019-05-09T16:47:32.419Z,3.27
2019-05-09T16:50:04.740Z,2.50
2019-05-09T16:52:43.143Z,3.03
2019-05-09T16:55:15.325Z,4.03
2019-05-09T16:57:47.099Z,3.90
2019-05-09T17:00:32.567Z,3.30
2019-05-09T17:03:05.374Z,4.23
2019-05-09T17:05:37.413Z,3.50
2019-05-09T17:08:10.875Z,4.27
2019-05-09T17:10:42.070Z,3.90
2019-05-09T17:13:13.412Z,2.63
2019-05-09T17:15:44.844Z,3.30
2019-05-09T17:18:18.904Z,5.07
2019-05-09T17:21:14.906Z,6.50
2019-05-09T17:23:33.528Z,4.40
2019-05-09T17:26:04.765Z,5.17
2019-05-09T17:28:37.594Z,5.90
2019-05-09T17:31:09.309Z,13.57
2019-05-09T17:33:42.147Z,6.40
2019-05-09T17:36:13.416Z,2.80
2019-05-09T17:38:44.664Z,4.37
2019-05-09T17:41:17.717Z,8.90
2019-05-09T17:43:49.236Z,3.50
2019-05-09T17:46:20.437Z,5.80
2019-05-09T17:48:53.290Z,9.97
2019-05-09T17:51:33.043Z,7.00
2019-05-09T17:53:58.481Z,6.70
2019-05-09T17:56:30.573Z,5.10
2019-05-09T17:59:01.848Z,5.20
2019-05-09T18:01:34.054Z,7.77
2019-05-09T18:04:05.645Z,1.40
2019-05-09T18:06:38.716Z,1.90
2019-05-09T18:09:10.010Z,2.43
2019-05-09T18:11:41.403Z,4.10
2019-05-09T18:14:12.754Z,7.70
2019-05-09T18:16:44.138Z,5.87
2019-05-09T18:19:17.955Z,55.93
2019-05-09T18:21:51.156Z,56.33
2019-05-09T18:24:22.440Z,36.57
2019-05-09T18:26:53.930Z,13.67
2019-05-09T18:29:27.280Z,8.70
2019-05-09T18:32:11.142Z,12.67
2019-05-09T18:34:42.406Z,11.93
2019-05-09T18:37:13.771Z,10.73
2019-05-09T18:39:45.005Z,2.67
2019-05-09T18:42:17.914Z,1.83
2019-05-09T18:44:49.309Z,4.73
2019-05-09T18:47:20.590Z,1.50
2019-05-09T18:49:51.924Z,4.77
2019-05-09T18:52:23.338Z,4.33
2019-05-09T18:54:54.568Z,5.50
2019-05-09T18:57:26.059Z,3.70
2019-05-09T18:59:58.852Z,5.40
2019-05-09T19:02:30.275Z,3.90
2019-05-09T19:05:01.501Z,6.10
2019-05-09T19:07:32.803Z,4.07
2019-05-09T19:10:04.516Z,10.30
2019-05-09T19:12:35.981Z,4.10
2019-05-09T19:15:09.288Z,1.77
2019-05-09T19:18:05.449Z,2.80
2019-05-09T19:21:10.980Z,4.30
2019-05-09T19:23:42.476Z,6.90
2019-05-09T19:26:31.337Z,3.60
2019-05-09T19:29:02.862Z,4.40
2019-05-09T19:31:34.424Z,4.43
2019-05-09T19:34:06.517Z,3.47
2019-05-09T19:36:38.227Z,2.80
2019-05-09T19:39:10.603Z,3.70
2019-05-09T19:41:42.248Z,1.87
2019-05-09T19:44:13.646Z,3.30
2019-05-09T19:46:45.333Z,2.53
2019-05-09T19:49:16.806Z,2.70
2019-05-09T19:51:50.451Z,3.40
2019-05-09T19:54:21.868Z,4.00
2019-05-09T19:56:53.350Z,3.03
2019-05-09T19:59:24.903Z,2.30
2019-05-09T20:01:57.171Z,5.43
2019-05-09T20:04:28.536Z,1.80
2019-05-09T20:06:59.836Z,3.53
2019-05-09T20:09:46.207Z,4.47
2019-05-09T20:12:46.124Z,4.03
2019-05-09T20:15:19.210Z,3.43
2019-05-09T20:17:50.703Z,2.90
2019-05-09T20:20:22.024Z,3.10
2019-05-09T20:22:53.616Z,3.17
2019-05-09T20:25:25.151Z,2.43
2019-05-09T20:27:56.843Z,5.90
2019-05-09T20:30:28.124Z,4.80
2019-05-09T20:33:07.078Z,7.93
2019-05-09T20:35:38.316Z,2.27
2019-05-09T20:38:10.103Z,3.20
2019-05-09T20:40:41.487Z,2.33
2019-05-09T20:43:12.936Z,6.63
2019-05-09T20:45:44.576Z,4.57
2019-05-09T20:48:16.117Z,5.20
2019-05-09T20:50:48.080Z,5.00
2019-05-09T20:53:19.485Z,4.17
2019-05-09T20:55:51.262Z,4.50
2019-05-09T20:58:22.794Z,4.90
2019-05-09T21:00:54.548Z,8.10
2019-05-09T21:03:26.134Z,5.10
2019-05-09T21:05:57.643Z,2.77
2019-05-09T21:08:31.315Z,4.90
2019-05-09T21:11:02.763Z,3.20
2019-05-09T21:13:47.442Z,5.27
2019-05-09T21:16:07.453Z,4.00
2019-05-09T21:18:39.013Z,5.43
2019-05-09T21:21:10.595Z,5.67
2019-05-09T21:23:42.418Z,3.70
2019-05-09T21:26:13.804Z,3.83
2019-05-09T21:28:45.886Z,2.60
2019-05-09T21:31:17.497Z,2.93
2019-05-09T21:33:48.925Z,2.47
2019-05-09T21:36:20.161Z,2.63
2019-05-09T21:38:51.561Z,3.73
2019-05-09T21:41:22.927Z,1.93
2019-05-09T21:43:54.557Z,5.17
2019-05-09T21:46:25.787Z,3.17
2019-05-09T21:48:57.016Z,4.60
2019-05-09T21:51:28.877Z,3.07
2019-05-09T21:54:00.095Z,3.43
2019-05-09T21:56:31.883Z,2.27
2019-05-09T21:59:03.333Z,2.43
2019-05-09T22:01:35.146Z,3.30
2019-05-09T22:04:06.389Z,2.60
2019-05-09T22:06:37.877Z,3.33
2019-05-09T22:09:10.186Z,4.50
2019-05-09T22:11:42.982Z,4.57
2019-05-09T22:14:14.788Z,3.37
2019-05-09T22:16:48.052Z,6.83
2019-05-09T22:19:19.296Z,5.33
2019-05-09T22:21:50.714Z,3.00
2019-05-09T22:24:21.971Z,7.07
2019-05-09T22:26:53.209Z,4.23
2019-05-09T22:29:24.392Z,4.07
2019-05-09T22:31:55.985Z,3.60
2019-05-09T22:34:27.863Z,3.20
2019-05-09T22:36:59.082Z,3.13
2019-05-09T22:39:31.136Z,3.83
2019-05-09T22:42:03.307Z,3.20
2019-05-09T22:44:35.123Z,7.20
2019-05-09T22:47:06.387Z,10.20
2019-05-09T22:49:37.875Z,2.90
2019-05-09T22:52:11.384Z,3.40
2019-05-09T22:54:42.672Z,3.40
2019-05-09T22:57:13.912Z,3.33
2019-05-09T22:59:45.193Z,3.83
2019-05-09T23:02:16.634Z,2.07
2019-05-09T23:04:47.835Z,1.67
2019-05-09T23:07:19.522Z,5.07
2019-05-09T23:09:50.906Z,3.00
2019-05-09T23:12:22.254Z,4.17
2019-05-09T23:14:54.493Z,2.80
2019-05-09T23:17:25.844Z,3.57
2019-05-09T23:20:02.243Z,2.67
2019-05-09T23:22:34.220Z,1.90
2019-05-09T23:25:06.273Z,2.27
2019-05-09T23:27:37.770Z,5.23
2019-05-09T23:30:10.791Z,1.97
2019-05-09T23:32:44.601Z,3.00
2019-05-09T23:35:15.797Z,2.83
2019-05-09T23:37:48.426Z,3.60
2019-05-09T23:40:20.000Z,1.67
2019-05-09T23:42:55.790Z,1.80
2019-05-09T23:45:27.001Z,1.30
2019-05-09T23:47:58.497Z,3.73
2019-05-09T23:50:31.273Z,4.27
2019-05-09T23:53:02.534Z,1.63
2019-05-09T23:55:51.896Z,4.40
2019-05-09T23:58:40.796Z,3.70
